createdAt,value
2022-12-12T00:01:12.719Z,2.60
2022-12-12T00:03:39.275Z,2.60
2022-12-12T00:06:06.116Z,2.52
2022-12-12T00:08:33.144Z,2.45
2022-12-12T00:10:59.718Z,2.42
2022-12-12T00:13:26.155Z,2.42
2022-12-12T00:15:52.661Z,2.44
2022-12-12T00:18:19.149Z,2.43
2022-12-12T00:20:45.711Z,2.44
2022-12-12T00:23:12.151Z,2.49
2022-12-12T00:25:38.585Z,2.49
2022-12-12T00:28:05.016Z,2.47
2022-12-12T00:30:31.455Z,2.49
2022-12-12T00:32:57.933Z,2.52
2022-12-12T00:35:24.433Z,2.48
2022-12-12T00:37:51.491Z,2.43
2022-12-12T00:40:17.941Z,2.43
2022-12-12T00:42:44.423Z,2.39
2022-12-12T00:45:11.487Z,2.32
2022-12-12T00:47:38.185Z,2.33
2022-12-12T00:50:05.029Z,2.36
2022-12-12T00:52:31.459Z,2.41
2022-12-12T00:54:58.057Z,2.42
2022-12-12T00:57:24.541Z,2.43
2022-12-12T00:59:51.001Z,2.40
2022-12-12T01:02:17.427Z,2.35
2022-12-12T01:04:43.890Z,2.39
2022-12-12T01:07:10.330Z,2.40
2022-12-12T01:09:36.789Z,2.31
2022-12-12T01:12:03.569Z,2.28
2022-12-12T01:14:30.005Z,2.22
2022-12-12T01:16:56.445Z,2.17
2022-12-12T01:19:23.349Z,2.24
2022-12-12T01:21:49.861Z,2.19
2022-12-12T01:24:16.331Z,2.15
2022-12-12T01:26:42.802Z,2.11
2022-12-12T01:29:09.250Z,2.07
2022-12-12T01:31:35.793Z,2.08
2022-12-12T01:34:02.277Z,2.09
2022-12-12T01:36:28.698Z,2.07
2022-12-12T01:38:56.939Z,2.07
2022-12-12T01:41:24.424Z,2.04
2022-12-12T01:43:51.133Z,2.03
2022-12-12T01:46:41.296Z,2.04
2022-12-12T01:49:21.451Z,2.17
2022-12-12T01:51:49.563Z,2.16
2022-12-12T01:54:22.167Z,2.14
2022-12-12T01:56:50.461Z,2.10
2022-12-12T01:59:20.956Z,2.06
2022-12-12T02:01:47.781Z,2.03
2022-12-12T02:04:15.458Z,2.11
2022-12-12T02:06:42.921Z,2.08
2022-12-12T02:09:12.394Z,2.08
2022-12-12T02:11:47.799Z,2.12
2022-12-12T02:14:22.433Z,2.13
2022-12-12T02:17:11.527Z,2.05
2022-12-12T02:19:44.023Z,1.94
2022-12-12T02:22:36.744Z,1.83
2022-12-12T02:25:37.147Z,1.74
2022-12-12T02:28:09.603Z,1.69
2022-12-12T02:30:55.749Z,1.64
2022-12-12T02:33:59.764Z,1.55
2022-12-12T02:36:43.829Z,1.51
2022-12-12T02:39:35.198Z,1.47
2022-12-12T02:42:24.733Z,1.46
2022-12-12T02:45:06.456Z,1.41
2022-12-12T02:47:39.430Z,1.43
2022-12-12T02:50:14.005Z,1.44
2022-12-12T02:52:43.529Z,1.45
2022-12-12T02:55:10.356Z,1.37
2022-12-12T02:57:36.967Z,1.32
2022-12-12T03:00:10.099Z,1.30
2022-12-12T03:03:27.449Z,1.27
2022-12-12T03:06:18.246Z,1.25
2022-12-12T03:09:06.716Z,1.15
2022-12-12T03:11:48.430Z,1.14
2022-12-12T03:14:25.941Z,1.11
2022-12-12T03:17:39.046Z,1.21
2022-12-12T03:20:26.399Z,1.11
2022-12-12T03:22:59.525Z,1.03
2022-12-12T03:25:47.348Z,1.00
2022-12-12T03:28:21.094Z,0.97
2022-12-12T03:30:55.209Z,1.03
2022-12-12T03:33:30.858Z,1.06
2022-12-12T03:36:10.246Z,1.03
2022-12-12T03:38:41.534Z,1.00
2022-12-12T03:41:15.858Z,0.95
2022-12-12T03:43:53.660Z,0.94
2022-12-12T03:46:27.173Z,0.92
2022-12-12T03:49:13.199Z,0.87
2022-12-12T03:51:45.827Z,0.84
2022-12-12T03:54:24.786Z,0.93
2022-12-12T03:57:00.646Z,0.89
2022-12-12T04:00:05.877Z,0.83
2022-12-12T04:02:43.055Z,0.77
2022-12-12T04:05:21.083Z,0.74
2022-12-12T04:08:02.606Z,0.70
2022-12-12T04:10:54.571Z,0.71
2022-12-12T04:13:49.756Z,0.59
2022-12-12T04:16:33.314Z,0.57
2022-12-12T04:19:05.738Z,0.52
2022-12-12T04:22:15.369Z,0.49
2022-12-12T04:25:02.452Z,0.48
2022-12-12T04:27:41.269Z,0.46
2022-12-12T04:30:11.250Z,0.44
2022-12-12T04:32:57.144Z,0.46
2022-12-12T04:35:30.908Z,0.49
2022-12-12T04:38:00.602Z,0.46
2022-12-12T04:40:36.485Z,0.37
2022-12-12T04:43:33.864Z,0.34
2022-12-12T04:46:23.824Z,0.33
2022-12-12T04:49:03.329Z,0.42
2022-12-12T04:51:37.339Z,0.34
2022-12-12T04:54:09.508Z,0.30
2022-12-12T04:56:38.736Z,0.25
2022-12-12T04:59:06.705Z,0.25
2022-12-12T05:01:53.477Z,0.25
2022-12-12T05:04:37.411Z,0.26
2022-12-12T05:07:12.292Z,0.18
2022-12-12T05:09:39.294Z,0.21
2022-12-12T05:12:05.888Z,0.30
2022-12-12T05:14:32.639Z,0.33
2022-12-12T05:17:03.588Z,0.26
2022-12-12T05:19:30.103Z,0.25
2022-12-12T05:21:56.597Z,0.23
2022-12-12T05:24:23.084Z,0.18
2022-12-12T05:26:49.594Z,0.13
2022-12-12T05:29:16.025Z,0.12
2022-12-12T05:31:42.428Z,0.16
2022-12-12T05:34:10.200Z,0.15
2022-12-12T05:36:36.611Z,0.14
2022-12-12T05:39:03.392Z,0.11
2022-12-12T05:41:29.881Z,0.07
2022-12-12T05:43:56.426Z,0.02
2022-12-12T05:46:22.885Z,0.04
2022-12-12T05:48:50.737Z,0.02
2022-12-12T05:51:18.343Z,-0.03
2022-12-12T05:53:45.275Z,0.02
2022-12-12T05:56:12.548Z,-0.10
2022-12-12T05:58:40.425Z,-0.11
2022-12-12T06:01:07.241Z,-0.22
2022-12-12T06:03:34.073Z,-0.25
2022-12-12T06:06:00.595Z,-0.21
2022-12-12T06:08:27.169Z,-0.23
2022-12-12T06:10:53.808Z,-0.23
2022-12-12T06:13:20.252Z,-0.23
2022-12-12T06:15:46.747Z,-0.19
2022-12-12T06:18:13.337Z,-0.18
2022-12-12T06:20:39.780Z,-0.23
2022-12-12T06:23:06.320Z,-0.18
2022-12-12T06:25:32.817Z,-0.17
2022-12-12T06:27:59.414Z,-0.20
2022-12-12T06:30:26.105Z,-0.18
2022-12-12T06:32:52.539Z,-0.17
2022-12-12T06:35:18.987Z,-0.16
2022-12-12T06:37:45.428Z,-0.20
2022-12-12T06:40:12.598Z,-0.28
2022-12-12T06:42:43.241Z,-0.31
2022-12-12T06:45:13.096Z,-0.22
2022-12-12T06:47:40.224Z,-0.19
2022-12-12T06:50:06.923Z,-0.26
2022-12-12T06:52:33.415Z,-0.35
2022-12-12T06:54:59.941Z,-0.42
2022-12-12T06:57:26.999Z,-0.48
2022-12-12T06:59:53.404Z,-0.51
2022-12-12T07:02:23.247Z,-0.51
2022-12-12T07:04:55.354Z,-0.57
2022-12-12T07:07:22.093Z,-0.55
2022-12-12T07:09:48.549Z,-0.58
2022-12-12T07:12:14.998Z,-0.62
2022-12-12T07:14:41.524Z,-0.57
2022-12-12T07:17:08.048Z,-0.53
2022-12-12T07:19:34.533Z,-0.53
2022-12-12T07:22:07.508Z,-0.60
2022-12-12T07:24:36.157Z,-0.63
2022-12-12T07:27:03.487Z,-0.66
2022-12-12T07:29:29.993Z,-0.67
2022-12-12T07:31:56.458Z,-0.70
2022-12-12T07:34:24.249Z,-0.64
2022-12-12T07:36:51.069Z,-0.65
2022-12-12T07:39:20.900Z,-0.58
2022-12-12T07:41:47.843Z,-0.46
2022-12-12T07:44:16.069Z,-0.35
2022-12-12T07:46:42.612Z,-0.35
2022-12-12T07:49:09.151Z,-0.36
2022-12-12T07:51:35.622Z,-0.52
2022-12-12T07:54:02.098Z,-0.60
2022-12-12T07:56:28.619Z,-0.69
2022-12-12T07:58:55.563Z,-0.67
2022-12-12T08:01:25.358Z,-0.62
2022-12-12T08:03:53.398Z,-0.66
2022-12-12T08:06:21.984Z,-0.71
2022-12-12T08:08:49.906Z,-0.69
2022-12-12T08:11:20.353Z,-0.68
2022-12-12T08:13:47.154Z,-0.64
2022-12-12T08:16:16.562Z,-0.64
2022-12-12T08:18:44.293Z,-0.68
2022-12-12T08:21:12.207Z,-0.59
2022-12-12T08:23:40.216Z,-0.56
2022-12-12T08:26:13.215Z,-0.58
2022-12-12T08:28:41.454Z,-0.61
2022-12-12T08:31:08.882Z,-0.64
2022-12-12T08:33:35.702Z,-0.62
2022-12-12T08:36:11.885Z,-0.58
2022-12-12T08:38:38.288Z,-0.55
2022-12-12T08:41:04.912Z,-0.51
2022-12-12T08:43:31.390Z,-0.53
2022-12-12T08:46:01.790Z,-0.47
2022-12-12T08:48:28.765Z,-0.44
2022-12-12T08:50:55.253Z,-0.39
2022-12-12T08:53:21.911Z,-0.37
2022-12-12T08:55:48.463Z,-0.41
2022-12-12T08:58:15.068Z,-0.31
2022-12-12T09:00:41.615Z,-0.15
2022-12-12T09:03:08.151Z,-0.07
2022-12-12T09:05:35.027Z,-0.02
2022-12-12T09:08:01.599Z,0.01
2022-12-12T09:10:29.028Z,0.07
2022-12-12T09:12:55.574Z,0.12
2022-12-12T09:15:22.037Z,0.16
2022-12-12T09:17:48.541Z,0.24
2022-12-12T09:20:15.615Z,0.44
2022-12-12T09:22:42.233Z,0.56
2022-12-12T09:25:09.512Z,0.52
2022-12-12T09:27:36.153Z,0.44
2022-12-12T09:30:02.699Z,0.45
2022-12-12T09:32:29.142Z,0.48
2022-12-12T09:34:55.605Z,0.56
2022-12-12T09:37:22.416Z,0.55
2022-12-12T09:39:52.059Z,0.53
2022-12-12T09:42:23.022Z,0.62
2022-12-12T09:44:50.441Z,0.61
2022-12-12T09:47:25.234Z,0.65
2022-12-12T09:49:56.342Z,0.67
2022-12-12T09:52:34.774Z,0.66
2022-12-12T09:55:16.245Z,0.63
2022-12-12T09:58:17.614Z,0.66
2022-12-12T10:01:04.939Z,0.56
2022-12-12T10:03:54.500Z,0.58
2022-12-12T10:06:37.018Z,0.68
2022-12-12T10:09:12.721Z,0.78
2022-12-12T10:11:51.927Z,0.78
2022-12-12T10:14:47.483Z,0.64
2022-12-12T10:17:25.775Z,0.68
2022-12-12T10:20:01.709Z,0.76
2022-12-12T10:22:39.528Z,0.80
2022-12-12T10:25:08.901Z,0.70
2022-12-12T10:27:35.345Z,0.68
2022-12-12T10:30:15.891Z,0.79
2022-12-12T10:32:53.957Z,0.83
2022-12-12T10:35:32.697Z,0.76
2022-12-12T10:38:28.298Z,0.66
2022-12-12T10:41:10.920Z,0.85
2022-12-12T10:43:50.408Z,0.90
2022-12-12T10:46:28.038Z,1.00
2022-12-12T10:48:55.192Z,0.94
2022-12-12T10:51:25.780Z,1.05
2022-12-12T10:53:52.369Z,0.98
2022-12-12T10:56:22.680Z,0.98
2022-12-12T10:58:57.323Z,1.06
2022-12-12T11:02:07.989Z,0.99
2022-12-12T11:04:20.739Z,1.09
2022-12-12T11:06:51.100Z,1.13
2022-12-12T11:09:20.616Z,1.17
2022-12-12T11:12:09.213Z,1.10
2022-12-12T11:14:41.323Z,1.27
2022-12-12T11:17:26.173Z,1.19
2022-12-12T11:19:55.080Z,1.17
2022-12-12T11:22:22.094Z,1.31
2022-12-12T11:24:49.902Z,1.35
2022-12-12T11:27:31.456Z,1.54
2022-12-12T11:30:04.356Z,1.63
2022-12-12T11:32:46.367Z,1.62
2022-12-12T11:35:32.999Z,1.60
2022-12-12T11:38:06.013Z,1.79
2022-12-12T11:40:35.606Z,1.96
2022-12-12T11:43:25.371Z,2.02
2022-12-12T11:46:26.268Z,2.06
2022-12-12T11:48:52.697Z,2.08
2022-12-12T11:51:31.232Z,2.17
2022-12-12T11:53:58.159Z,2.26
2022-12-12T11:56:40.981Z,2.48
2022-12-12T11:59:35.037Z,2.60
2022-12-12T12:02:18.903Z,2.47
2022-12-12T12:05:26.449Z,2.56
2022-12-12T12:08:05.276Z,2.61
2022-12-12T12:11:16.198Z,2.79
2022-12-12T12:13:57.843Z,2.78
2022-12-12T12:16:39.323Z,2.83
2022-12-12T12:19:27.522Z,2.80
2022-12-12T12:22:15.278Z,2.86
2022-12-12T12:25:03.679Z,2.89
2022-12-12T12:27:49.861Z,2.80
2022-12-12T12:30:28.840Z,2.85
2022-12-12T12:33:18.461Z,2.79
2022-12-12T12:36:06.178Z,2.86
2022-12-12T12:38:53.854Z,2.79
2022-12-12T12:41:30.759Z,2.71
2022-12-12T12:44:18.230Z,2.59
2022-12-12T12:47:08.839Z,2.72
2022-12-12T12:49:44.827Z,2.81
2022-12-12T12:52:29.476Z,2.81
2022-12-12T12:54:58.036Z,2.93
2022-12-12T12:57:30.281Z,2.92
2022-12-12T13:00:05.598Z,3.01
2022-12-12T13:02:54.117Z,3.18
2022-12-12T13:05:26.572Z,3.21
2022-12-12T13:08:14.827Z,3.31
2022-12-12T13:10:50.435Z,3.35
2022-12-12T13:13:30.586Z,3.47
2022-12-12T13:16:01.530Z,3.50
2022-12-12T13:18:44.511Z,3.62
2022-12-12T13:21:26.741Z,3.76
2022-12-12T13:23:59.157Z,3.81
2022-12-12T13:26:44.321Z,3.88
2022-12-12T13:29:28.999Z,4.01
2022-12-12T13:32:05.442Z,4.16
2022-12-12T13:34:38.362Z,4.24
2022-12-12T13:37:06.364Z,4.17
2022-12-12T13:39:36.602Z,4.11
2022-12-12T13:42:07.413Z,4.04
2022-12-12T13:44:39.936Z,4.08
2022-12-12T13:47:29.458Z,4.04
2022-12-12T13:49:58.404Z,4.09
2022-12-12T13:52:27.830Z,4.12
2022-12-12T13:55:18.514Z,4.11
2022-12-12T13:57:57.369Z,4.09
2022-12-12T14:00:25.538Z,4.13
2022-12-12T14:03:01.299Z,4.17
2022-12-12T14:05:41.375Z,4.42
2022-12-12T14:08:07.942Z,4.63
2022-12-12T14:10:36.165Z,4.91
2022-12-12T14:13:28.376Z,5.17
2022-12-12T14:15:57.709Z,5.22
2022-12-12T14:18:30.856Z,5.52
2022-12-12T14:21:07.274Z,6.11
2022-12-12T14:23:48.794Z,6.19
2022-12-12T14:26:27.633Z,6.53
2022-12-12T14:29:15.453Z,6.75
2022-12-12T14:32:07.771Z,6.95
2022-12-12T14:34:34.173Z,7.05
2022-12-12T14:37:28.012Z,7.10
2022-12-12T14:40:12.330Z,7.04
2022-12-12T14:43:18.757Z,7.06
2022-12-12T14:45:52.264Z,6.93
2022-12-12T14:48:18.669Z,6.88
2022-12-12T14:50:52.573Z,6.72
2022-12-12T14:53:25.395Z,6.62
2022-12-12T14:55:57.144Z,6.43
2022-12-12T14:58:28.232Z,6.39
2022-12-12T15:00:59.589Z,6.21
2022-12-12T15:03:33.112Z,6.08
2022-12-12T15:06:19.561Z,5.81
2022-12-12T15:08:46.312Z,5.60
2022-12-12T15:11:14.579Z,5.47
2022-12-12T15:13:59.643Z,5.16
2022-12-12T15:16:44.320Z,4.80
2022-12-12T15:19:22.119Z,4.29
2022-12-12T15:21:48.774Z,3.89
2022-12-12T15:24:36.732Z,3.55
2022-12-12T15:27:03.410Z,3.34
2022-12-12T15:29:31.897Z,3.15
2022-12-12T15:32:07.888Z,2.94
2022-12-12T15:34:38.365Z,2.80
2022-12-12T15:37:12.467Z,2.69
2022-12-12T15:39:39.060Z,2.56
2022-12-12T15:42:06.980Z,2.44
2022-12-12T15:44:33.700Z,2.43
2022-12-12T15:47:00.343Z,2.35
2022-12-12T15:49:41.739Z,2.22
2022-12-12T15:52:17.804Z,2.21
2022-12-12T15:54:46.449Z,2.19
2022-12-12T15:57:18.445Z,2.08
2022-12-12T15:59:45.623Z,1.94
2022-12-12T16:02:35.623Z,1.86
2022-12-12T16:05:22.903Z,1.80
2022-12-12T16:07:49.522Z,1.74
2022-12-12T16:10:23.670Z,1.61
2022-12-12T16:13:18.357Z,1.57
2022-12-12T16:15:44.881Z,1.58
2022-12-12T16:18:19.617Z,1.49
2022-12-12T16:20:52.960Z,1.47
2022-12-12T16:23:33.157Z,1.36
2022-12-12T16:25:59.913Z,1.29
2022-12-12T16:28:29.276Z,1.29
2022-12-12T16:31:02.122Z,1.21
2022-12-12T16:33:30.542Z,1.20
2022-12-12T16:36:00.389Z,1.12
2022-12-12T16:38:28.443Z,1.08
2022-12-12T16:40:57.815Z,1.01
2022-12-12T16:43:24.890Z,1.02
2022-12-12T16:45:54.092Z,1.01
2022-12-12T16:48:32.141Z,1.00
2022-12-12T16:51:02.295Z,0.98
2022-12-12T16:53:28.942Z,0.95
2022-12-12T16:55:55.672Z,0.88
2022-12-12T16:58:22.473Z,0.76
2022-12-12T17:00:52.794Z,0.70
2022-12-12T17:03:20.969Z,0.77
2022-12-12T17:05:48.505Z,0.72
2022-12-12T17:08:15.999Z,0.69
2022-12-12T17:10:43.800Z,0.72
2022-12-12T17:13:16.114Z,0.65
2022-12-12T17:15:42.572Z,0.66
2022-12-12T17:18:09.128Z,0.67
2022-12-12T17:20:37.670Z,0.70
2022-12-12T17:23:29.455Z,0.69
2022-12-12T17:26:02.946Z,0.72
2022-12-12T17:28:31.691Z,0.72
2022-12-12T17:30:58.235Z,0.63
2022-12-12T17:33:25.543Z,0.63
2022-12-12T17:35:59.770Z,0.60
2022-12-12T17:38:26.542Z,0.59
2022-12-12T17:40:54.048Z,0.52
2022-12-12T17:43:20.580Z,0.34
2022-12-12T17:46:03.627Z,0.30
2022-12-12T17:48:32.282Z,0.32
2022-12-12T17:51:00.485Z,0.31
2022-12-12T17:53:27.556Z,0.26
2022-12-12T17:56:01.267Z,0.22
2022-12-12T17:58:36.478Z,0.12
2022-12-12T18:01:09.936Z,0.02
2022-12-12T18:03:37.208Z,0.09
2022-12-12T18:06:03.784Z,0.16
2022-12-12T18:08:30.443Z,0.16
2022-12-12T18:10:57.021Z,-0.03
2022-12-12T18:13:23.508Z,-0.11
2022-12-12T18:15:56.684Z,-0.07
2022-12-12T18:18:25.468Z,-0.10
2022-12-12T18:20:53.045Z,-0.16
2022-12-12T18:23:19.933Z,-0.13
2022-12-12T18:25:46.739Z,-0.11
2022-12-12T18:28:13.344Z,-0.04
2022-12-12T18:30:40.636Z,0.07
2022-12-12T18:33:08.403Z,0.10
2022-12-12T18:35:34.869Z,0.09
2022-12-12T18:38:02.062Z,-0.08
2022-12-12T18:40:29.192Z,-0.24
2022-12-12T18:42:55.781Z,-0.37
2022-12-12T18:45:23.925Z,-0.46
2022-12-12T18:47:50.389Z,-0.52
2022-12-12T18:50:17.132Z,-0.53
2022-12-12T18:52:43.657Z,-0.49
2022-12-12T18:55:10.155Z,-0.40
2022-12-12T18:57:36.565Z,-0.44
2022-12-12T19:00:06.599Z,-0.39
2022-12-12T19:02:37.274Z,-0.40
2022-12-12T19:05:05.336Z,-0.54
2022-12-12T19:07:31.851Z,-0.47
2022-12-12T19:09:58.548Z,-0.37
2022-12-12T19:12:24.952Z,-0.43
2022-12-12T19:17:37.843Z,-0.45
2022-12-12T19:20:04.737Z,-0.38
2022-12-12T19:22:45.032Z,-0.44
2022-12-12T19:25:12.475Z,-0.40
2022-12-12T19:27:38.993Z,-0.30
2022-12-12T19:30:06.291Z,-0.28
2022-12-12T19:32:32.883Z,-0.38
2022-12-12T19:34:59.726Z,-0.53
2022-12-12T19:37:26.139Z,-0.67
2022-12-12T19:39:52.935Z,-0.72
2022-12-12T19:42:20.434Z,-0.72
2022-12-12T19:44:46.845Z,-0.62
2022-12-12T19:47:13.409Z,-0.60
2022-12-12T19:49:39.873Z,-0.59
2022-12-12T19:52:12.182Z,-0.69
2022-12-12T19:54:40.419Z,-0.62
2022-12-12T19:57:06.843Z,-0.65
2022-12-12T19:59:33.409Z,-0.64
2022-12-12T20:02:01.011Z,-0.62
2022-12-12T20:04:30.088Z,-0.66
2022-12-12T20:06:56.925Z,-0.68
2022-12-12T20:09:26.633Z,-0.71
2022-12-12T20:11:54.053Z,-0.71
2022-12-12T20:14:22.804Z,-0.81
2022-12-12T20:16:50.657Z,-0.91
2022-12-12T20:19:17.464Z,-0.92
2022-12-12T20:22:02.028Z,-0.94
2022-12-12T20:24:29.912Z,-0.94
2022-12-12T20:26:57.030Z,-0.99
2022-12-12T20:29:23.760Z,-1.04
2022-12-12T20:31:51.300Z,-0.99
2022-12-12T20:34:24.839Z,-1.00
2022-12-12T20:36:52.338Z,-0.98
2022-12-12T20:39:21.272Z,-1.05
2022-12-12T20:41:49.005Z,-1.05
2022-12-12T20:44:15.802Z,-0.95
2022-12-12T20:46:45.246Z,-0.94
2022-12-12T20:49:16.952Z,-0.95
2022-12-12T20:51:59.664Z,-0.99
2022-12-12T20:54:28.537Z,-1.00
2022-12-12T20:56:55.674Z,-1.10
2022-12-12T20:59:22.557Z,-1.04
2022-12-12T21:01:49.099Z,-1.01
2022-12-12T21:04:15.743Z,-1.00
2022-12-12T21:06:44.856Z,-1.10
2022-12-12T21:09:16.358Z,-1.09
2022-12-12T21:11:46.260Z,-1.13
2022-12-12T21:14:12.755Z,-1.12
2022-12-12T21:16:39.601Z,-1.04
2022-12-12T21:19:09.208Z,-1.07
2022-12-12T21:21:36.581Z,-1.04
2022-12-12T21:24:03.270Z,-1.06
2022-12-12T21:26:31.407Z,-1.16
2022-12-12T21:28:59.990Z,-1.24
2022-12-12T21:31:29.833Z,-1.33
2022-12-12T21:33:57.125Z,-1.36
2022-12-12T21:36:25.075Z,-1.34
2022-12-12T21:38:52.878Z,-1.26
2022-12-12T21:41:21.484Z,-1.24
2022-12-12T21:43:48.434Z,-1.31
2022-12-12T21:46:18.622Z,-1.36
2022-12-12T21:48:45.971Z,-1.32
2022-12-12T21:51:16.363Z,-1.31
2022-12-12T21:53:43.096Z,-1.31
2022-12-12T21:56:17.479Z,-1.36
2022-12-12T21:58:46.044Z,-1.33
2022-12-12T22:01:15.657Z,-1.29
2022-12-12T22:03:42.903Z,-1.26
2022-12-12T22:06:16.935Z,-1.31
2022-12-12T22:08:44.369Z,-1.40
2022-12-12T22:11:11.402Z,-1.45
2022-12-12T22:13:40.286Z,-1.41
2022-12-12T22:16:19.340Z,-1.39
2022-12-12T22:18:47.264Z,-1.41
2022-12-12T22:21:18.752Z,-1.53
2022-12-12T22:23:47.442Z,-1.62
2022-12-12T22:26:25.949Z,-1.62
2022-12-12T22:28:54.907Z,-1.52
2022-12-12T22:31:23.257Z,-1.61
2022-12-12T22:34:04.863Z,-1.61
2022-12-12T22:36:34.023Z,-1.62
2022-12-12T22:39:01.302Z,-1.59
2022-12-12T22:41:29.537Z,-1.62
2022-12-12T22:44:04.323Z,-1.72
2022-12-12T22:46:30.871Z,-1.78
2022-12-12T22:49:00.077Z,-1.75
2022-12-12T22:51:31.406Z,-1.81
2022-12-12T22:53:59.992Z,-1.89
2022-12-12T22:56:29.044Z,-1.90
2022-12-12T22:58:55.826Z,-1.92
2022-12-12T23:01:24.381Z,-1.91
2022-12-12T23:03:51.902Z,-1.87
2022-12-12T23:06:21.862Z,-1.80
2022-12-12T23:08:53.393Z,-1.75
2022-12-12T23:11:21.825Z,-1.77
2022-12-12T23:13:48.336Z,-1.73
2022-12-12T23:16:19.955Z,-1.72
2022-12-12T23:18:48.254Z,-1.72
2022-12-12T23:21:17.581Z,-1.75
2022-12-12T23:23:44.599Z,-1.83
2022-12-12T23:26:14.132Z,-1.92
2022-12-12T23:28:41.678Z,-1.96
2022-12-12T23:31:16.755Z,-1.90
2022-12-12T23:33:43.191Z,-1.89
2022-12-12T23:36:11.512Z,-1.87
2022-12-12T23:38:38.509Z,-1.79
2022-12-12T23:41:06.521Z,-1.72
2022-12-12T23:43:33.743Z,-1.71
2022-12-12T23:46:05.365Z,-1.71
2022-12-12T23:48:32.313Z,-1.72
2022-12-12T23:50:59.379Z,-1.74
2022-12-12T23:53:27.275Z,-1.83
2022-12-12T23:55:53.806Z,-1.84
2022-12-12T23:58:20.363Z,-1.88
